New Richmond, Ohio
Current Conditions -  °F | °C
As of 12:53 AM on Tuesday 27 Jan 2015 (Local Time) from KLUK Reporting Station
Overcast Overcast  
Wind Chill: 16°   Ceiling: 6000
Heat Index: 22°   Visibility: 10mi
Dew Point: 14°   Wind: 5mph
Humidity: 72%   Direction: 50°NE
Pressure: 29.97"   Gusts: NA
Location:  38.95°N, 84.28°W
Report Text: KLUK 270553Z AUTO 05004KT 10SM SCT030 OVC060 M06/M10 A2997 RMK AO2 SLP154 T10561100 11039 21067 58003
Loading
Personal Weather Stations






























Interactive Weather Map New forecast layout! Learn more

10-Day Weather Forecast

Advertisements
Track Severe Weather on mobile